sensor_id;sensor_type;location;lat;lon;timestamp;temperature;humidity
13682;DHT22;6913;49.892;7.936;2022-07-18T00:01:54;15.50;99.90
13682;DHT22;6913;49.892;7.936;2022-07-18T00:04:22;15.60;99.90
13682;DHT22;6913;49.892;7.936;2022-07-18T00:06:48;15.40;99.90
13682;DHT22;6913;49.892;7.936;2022-07-18T00:09:17;15.30;99.90
13682;DHT22;6913;49.892;7.936;2022-07-18T00:11:45;15.20;99.90
13682;DHT22;6913;49.892;7.936;2022-07-18T00:14:12;15.10;99.90
13682;DHT22;6913;49.892;7.936;2022-07-18T00:16:39;15.10;99.90
13682;DHT22;6913;49.892;7.936;2022-07-18T00:19:06;15.00;99.90
13682;DHT22;6913;49.892;7.936;2022-07-18T00:21:33;15.00;99.90
13682;DHT22;6913;49.892;7.936;2022-07-18T00:24:00;14.90;99.90
13682;DHT22;6913;49.892;7.936;2022-07-18T00:26:29;14.90;99.90
13682;DHT22;6913;49.892;7.936;2022-07-18T00:28:56;14.80;99.90
13682;DHT22;6913;49.892;7.936;2022-07-18T00:31:23;14.80;99.90
13682;DHT22;6913;49.892;7.936;2022-07-18T00:33:49;15.00;99.90
13682;DHT22;6913;49.892;7.936;2022-07-18T00:36:16;14.70;99.90
13682;DHT22;6913;49.892;7.936;2022-07-18T00:38:43;14.60;99.90
13682;DHT22;6913;49.892;7.936;2022-07-18T00:41:14;15.10;99.90
13682;DHT22;6913;49.892;7.936;2022-07-18T00:43:42;15.20;99.90
13682;DHT22;6913;49.892;7.936;2022-07-18T00:46:09;15.10;99.90
13682;DHT22;6913;49.892;7.936;2022-07-18T00:48:37;14.40;99.90
13682;DHT22;6913;49.892;7.936;2022-07-18T00:51:04;14.60;99.90
13682;DHT22;6913;49.892;7.936;2022-07-18T00:53:31;14.40;99.90
13682;DHT22;6913;49.892;7.936;2022-07-18T00:56:00;14.40;99.90
13682;DHT22;6913;49.892;7.936;2022-07-18T00:58:27;14.40;99.90
13682;DHT22;6913;49.892;7.936;2022-07-18T01:00:57;14.30;99.90
13682;DHT22;6913;49.892;7.936;2022-07-18T01:03:41;14.30;99.90
13682;DHT22;6913;49.892;7.936;2022-07-18T01:06:08;14.20;99.90
13682;DHT22;6913;49.892;7.936;2022-07-18T01:08:35;14.20;99.90
13682;DHT22;6913;49.892;7.936;2022-07-18T01:11:03;14.10;99.90
13682;DHT22;6913;49.892;7.936;2022-07-18T01:13:30;14.10;99.90
13682;DHT22;6913;49.892;7.936;2022-07-18T01:15:59;14.30;99.90
13682;DHT22;6913;49.892;7.936;2022-07-18T01:18:26;14.70;99.90
13682;DHT22;6913;49.892;7.936;2022-07-18T01:20:55;14.40;99.90
13682;DHT22;6913;49.892;7.936;2022-07-18T01:23:22;13.90;99.90
13682;DHT22;6913;49.892;7.936;2022-07-18T01:25:49;13.90;99.90
13682;DHT22;6913;49.892;7.936;2022-07-18T01:28:15;14.50;99.90
13682;DHT22;6913;49.892;7.936;2022-07-18T01:30:42;13.80;99.90
13682;DHT22;6913;49.892;7.936;2022-07-18T01:33:09;13.80;99.90
13682;DHT22;6913;49.892;7.936;2022-07-18T01:35:36;13.80;99.90
13682;DHT22;6913;49.892;7.936;2022-07-18T01:38:04;13.90;99.90
13682;DHT22;6913;49.892;7.936;2022-07-18T01:40:32;13.70;99.90
13682;DHT22;6913;49.892;7.936;2022-07-18T01:42:58;13.70;99.90
13682;DHT22;6913;49.892;7.936;2022-07-18T01:45:25;13.70;99.90
13682;DHT22;6913;49.892;7.936;2022-07-18T01:47:52;13.60;99.90
13682;DHT22;6913;49.892;7.936;2022-07-18T01:50:19;13.60;99.90
13682;DHT22;6913;49.892;7.936;2022-07-18T01:52:49;13.60;99.90
13682;DHT22;6913;49.892;7.936;2022-07-18T01:55:17;13.50;99.90
13682;DHT22;6913;49.892;7.936;2022-07-18T01:57:44;13.50;99.90
13682;DHT22;6913;49.892;7.936;2022-07-18T02:00:14;13.40;99.90
13682;DHT22;6913;49.892;7.936;2022-07-18T02:02:41;13.40;99.90
13682;DHT22;6913;49.892;7.936;2022-07-18T02:05:09;13.40;99.90
13682;DHT22;6913;49.892;7.936;2022-07-18T02:07:38;14.10;99.90
13682;DHT22;6913;49.892;7.936;2022-07-18T02:10:07;13.40;99.90
13682;DHT22;6913;49.892;7.936;2022-07-18T02:12:36;13.30;99.90
13682;DHT22;6913;49.892;7.936;2022-07-18T02:15:04;13.30;99.90
13682;DHT22;6913;49.892;7.936;2022-07-18T02:17:31;13.30;99.90
13682;DHT22;6913;49.892;7.936;2022-07-18T02:19:58;13.50;99.90
13682;DHT22;6913;49.892;7.936;2022-07-18T02:22:25;13.90;99.90
13682;DHT22;6913;49.892;7.936;2022-07-18T02:24:53;12.50;99.90
13682;DHT22;6913;49.892;7.936;2022-07-18T02:27:20;13.10;99.90
13682;DHT22;6913;49.892;7.936;2022-07-18T02:29:48;13.10;99.90
13682;DHT22;6913;49.892;7.936;2022-07-18T02:32:15;13.10;99.90
13682;DHT22;6913;49.892;7.936;2022-07-18T02:34:42;13.00;99.90
13682;DHT22;6913;49.892;7.936;2022-07-18T02:37:09;13.00;99.90
13682;DHT22;6913;49.892;7.936;2022-07-18T02:39:36;13.00;99.90
13682;DHT22;6913;49.892;7.936;2022-07-18T02:42:03;13.00;99.90
13682;DHT22;6913;49.892;7.936;2022-07-18T02:44:30;12.90;99.90
13682;DHT22;6913;49.892;7.936;2022-07-18T02:46:59;12.80;99.90
13682;DHT22;6913;49.892;7.936;2022-07-18T02:49:26;12.80;99.90
13682;DHT22;6913;49.892;7.936;2022-07-18T02:51:54;12.70;99.90
13682;DHT22;6913;49.892;7.936;2022-07-18T02:54:22;12.70;99.90
13682;DHT22;6913;49.892;7.936;2022-07-18T02:56:50;12.70;99.90
13682;DHT22;6913;49.892;7.936;2022-07-18T02:59:17;12.60;99.90
13682;DHT22;6913;49.892;7.936;2022-07-18T03:01:44;12.60;99.90
13682;DHT22;6913;49.892;7.936;2022-07-18T03:04:12;12.60;99.90
13682;DHT22;6913;49.892;7.936;2022-07-18T03:06:39;12.60;99.90
13682;DHT22;6913;49.892;7.936;2022-07-18T03:09:06;12.50;99.90
13682;DHT22;6913;49.892;7.936;2022-07-18T03:11:33;12.50;99.90
13682;DHT22;6913;49.892;7.936;2022-07-18T03:13:59;12.50;99.90
13682;DHT22;6913;49.892;7.936;2022-07-18T03:16:26;12.50;99.90
13682;DHT22;6913;49.892;7.936;2022-07-18T03:18:53;12.50;99.90
13682;DHT22;6913;49.892;7.936;2022-07-18T03:21:22;12.50;99.90
13682;DHT22;6913;49.892;7.936;2022-07-18T03:23:48;12.50;99.90
13682;DHT22;6913;49.892;7.936;2022-07-18T03:26:15;12.40;99.90
13682;DHT22;6913;49.892;7.936;2022-07-18T03:28:42;12.40;99.90
13682;DHT22;6913;49.892;7.936;2022-07-18T03:31:09;12.30;99.90
13682;DHT22;6913;49.892;7.936;2022-07-18T03:33:37;12.30;99.90
13682;DHT22;6913;49.892;7.936;2022-07-18T03:36:04;12.40;99.90
13682;DHT22;6913;49.892;7.936;2022-07-18T03:38:33;12.30;99.90
13682;DHT22;6913;49.892;7.936;2022-07-18T03:41:01;12.20;99.90
13682;DHT22;6913;49.892;7.936;2022-07-18T03:43:28;12.20;99.90
13682;DHT22;6913;49.892;7.936;2022-07-18T03:45:56;12.20;99.90
13682;DHT22;6913;49.892;7.936;2022-07-18T03:48:23;12.90;99.90
13682;DHT22;6913;49.892;7.936;2022-07-18T03:50:49;12.10;99.90
13682;DHT22;6913;49.892;7.936;2022-07-18T03:53:16;12.20;99.90
13682;DHT22;6913;49.892;7.936;2022-07-18T03:55:45;12.10;99.90
13682;DHT22;6913;49.892;7.936;2022-07-18T03:58:12;12.20;99.90
13682;DHT22;6913;49.892;7.936;2022-07-18T04:00:38;12.20;99.90
13682;DHT22;6913;49.892;7.936;2022-07-18T04:03:05;12.20;99.90
13682;DHT22;6913;49.892;7.936;2022-07-18T04:05:32;12.30;99.90
13682;DHT22;6913;49.892;7.936;2022-07-18T04:07:59;12.30;99.90
13682;DHT22;6913;49.892;7.936;2022-07-18T04:10:26;12.30;99.90
13682;DHT22;6913;49.892;7.936;2022-07-18T04:12:55;12.40;99.90
13682;DHT22;6913;49.892;7.936;2022-07-18T04:15:24;12.40;99.90
13682;DHT22;6913;49.892;7.936;2022-07-18T04:17:51;12.60;99.90
13682;DHT22;6913;49.892;7.936;2022-07-18T04:20:19;12.70;99.90
13682;DHT22;6913;49.892;7.936;2022-07-18T04:22:49;13.10;99.90
13682;DHT22;6913;49.892;7.936;2022-07-18T04:25:16;13.10;99.90
13682;DHT22;6913;49.892;7.936;2022-07-18T04:27:44;14.20;99.90
13682;DHT22;6913;49.892;7.936;2022-07-18T04:30:13;13.80;99.90
13682;DHT22;6913;49.892;7.936;2022-07-18T04:32:41;13.80;99.90
13682;DHT22;6913;49.892;7.936;2022-07-18T04:35:08;14.00;99.90
13682;DHT22;6913;49.892;7.936;2022-07-18T04:37:35;14.20;99.90
13682;DHT22;6913;49.892;7.936;2022-07-18T04:40:03;14.50;99.90
13682;DHT22;6913;49.892;7.936;2022-07-18T04:42:31;14.70;99.90
13682;DHT22;6913;49.892;7.936;2022-07-18T04:44:58;15.00;99.90
13682;DHT22;6913;49.892;7.936;2022-07-18T04:47:27;15.10;99.90
13682;DHT22;6913;49.892;7.936;2022-07-18T04:49:54;15.40;99.90
13682;DHT22;6913;49.892;7.936;2022-07-18T04:52:21;15.50;99.90
13682;DHT22;6913;49.892;7.936;2022-07-18T04:54:49;15.80;99.90
13682;DHT22;6913;49.892;7.936;2022-07-18T04:57:16;16.60;99.90
13682;DHT22;6913;49.892;7.936;2022-07-18T04:59:43;16.50;99.90
13682;DHT22;6913;49.892;7.936;2022-07-18T05:02:10;16.90;99.90
13682;DHT22;6913;49.892;7.936;2022-07-18T05:04:39;16.80;99.90
13682;DHT22;6913;49.892;7.936;2022-07-18T05:07:06;17.40;99.90
13682;DHT22;6913;49.892;7.936;2022-07-18T05:09:33;17.80;99.90
13682;DHT22;6913;49.892;7.936;2022-07-18T05:12:01;17.90;99.90
13682;DHT22;6913;49.892;7.936;2022-07-18T05:14:28;18.20;99.90
13682;DHT22;6913;49.892;7.936;2022-07-18T05:16:55;18.30;99.90
13682;DHT22;6913;49.892;7.936;2022-07-18T05:19:22;18.50;99.90
13682;DHT22;6913;49.892;7.936;2022-07-18T05:21:50;18.80;99.90
13682;DHT22;6913;49.892;7.936;2022-07-18T05:24:17;18.80;99.90
13682;DHT22;6913;49.892;7.936;2022-07-18T05:26:44;19.00;99.90
13682;DHT22;6913;49.892;7.936;2022-07-18T05:29:11;18.70;99.90
13682;DHT22;6913;49.892;7.936;2022-07-18T05:31:39;19.20;99.90
13682;DHT22;6913;49.892;7.936;2022-07-18T05:34:07;19.20;99.90
13682;DHT22;6913;49.892;7.936;2022-07-18T05:36:33;19.40;99.90
13682;DHT22;6913;49.892;7.936;2022-07-18T05:39:03;20.20;99.90
13682;DHT22;6913;49.892;7.936;2022-07-18T05:41:29;20.80;99.90
13682;DHT22;6913;49.892;7.936;2022-07-18T05:43:56;21.00;99.90
13682;DHT22;6913;49.892;7.936;2022-07-18T05:46:23;21.30;99.90
13682;DHT22;6913;49.892;7.936;2022-07-18T05:48:50;21.30;99.90
13682;DHT22;6913;49.892;7.936;2022-07-18T05:51:17;21.70;99.90
13682;DHT22;6913;49.892;7.936;2022-07-18T05:53:45;21.00;99.90
13682;DHT22;6913;49.892;7.936;2022-07-18T05:56:13;21.20;99.90
13682;DHT22;6913;49.892;7.936;2022-07-18T05:58:41;21.50;99.90
13682;DHT22;6913;49.892;7.936;2022-07-18T06:01:08;21.70;99.90
13682;DHT22;6913;49.892;7.936;2022-07-18T06:03:34;21.80;99.90
13682;DHT22;6913;49.892;7.936;2022-07-18T06:06:01;21.70;99.90
13682;DHT22;6913;49.892;7.936;2022-07-18T06:08:28;22.50;99.90
13682;DHT22;6913;49.892;7.936;2022-07-18T06:10:55;23.20;99.90
13682;DHT22;6913;49.892;7.936;2022-07-18T06:13:23;23.50;99.90
13682;DHT22;6913;49.892;7.936;2022-07-18T06:15:50;23.50;99.90
13682;DHT22;6913;49.892;7.936;2022-07-18T06:18:17;23.40;99.90
13682;DHT22;6913;49.892;7.936;2022-07-18T06:20:44;23.50;99.90
13682;DHT22;6913;49.892;7.936;2022-07-18T06:23:11;22.30;99.90
13682;DHT22;6913;49.892;7.936;2022-07-18T06:25:38;23.20;99.90
13682;DHT22;6913;49.892;7.936;2022-07-18T06:28:04;22.60;99.90
13682;DHT22;6913;49.892;7.936;2022-07-18T06:30:33;23.20;99.90
13682;DHT22;6913;49.892;7.936;2022-07-18T06:33:00;23.60;99.80
13682;DHT22;6913;49.892;7.936;2022-07-18T06:35:30;24.00;99.90
13682;DHT22;6913;49.892;7.936;2022-07-18T06:37:57;24.40;99.60
13682;DHT22;6913;49.892;7.936;2022-07-18T06:40:24;25.30;98.40
13682;DHT22;6913;49.892;7.936;2022-07-18T06:42:52;25.10;97.80
13682;DHT22;6913;49.892;7.936;2022-07-18T06:45:19;25.40;97.80
13682;DHT22;6913;49.892;7.936;2022-07-18T06:47:47;25.90;96.60
13682;DHT22;6913;49.892;7.936;2022-07-18T06:50:15;25.50;96.70
13682;DHT22;6913;49.892;7.936;2022-07-18T06:52:43;25.60;97.10
13682;DHT22;6913;49.892;7.936;2022-07-18T06:55:12;25.90;96.50
13682;DHT22;6913;49.892;7.936;2022-07-18T06:57:40;26.10;95.60
13682;DHT22;6913;49.892;7.936;2022-07-18T07:00:09;26.80;94.70
13682;DHT22;6913;49.892;7.936;2022-07-18T07:02:40;26.60;94.50
13682;DHT22;6913;49.892;7.936;2022-07-18T07:05:09;26.70;95.60
13682;DHT22;6913;49.892;7.936;2022-07-18T07:07:36;27.00;95.20
13682;DHT22;6913;49.892;7.936;2022-07-18T07:10:03;27.90;93.50
13682;DHT22;6913;49.892;7.936;2022-07-18T07:12:30;27.60;91.60
13682;DHT22;6913;49.892;7.936;2022-07-18T07:15:04;28.10;91.80
13682;DHT22;6913;49.892;7.936;2022-07-18T07:17:31;29.00;90.50
13682;DHT22;6913;49.892;7.936;2022-07-18T07:19:58;28.90;88.80
13682;DHT22;6913;49.892;7.936;2022-07-18T07:22:26;29.30;86.50
13682;DHT22;6913;49.892;7.936;2022-07-18T07:24:53;29.70;83.20
13682;DHT22;6913;49.892;7.936;2022-07-18T07:27:20;29.90;81.40
13682;DHT22;6913;49.892;7.936;2022-07-18T07:29:47;29.10;78.00
13682;DHT22;6913;49.892;7.936;2022-07-18T07:32:14;29.70;78.30
13682;DHT22;6913;49.892;7.936;2022-07-18T07:34:41;30.50;75.90
13682;DHT22;6913;49.892;7.936;2022-07-18T07:37:08;29.90;72.90
13682;DHT22;6913;49.892;7.936;2022-07-18T07:39:36;29.80;73.90
13682;DHT22;6913;49.892;7.936;2022-07-18T07:42:03;28.90;73.00
13682;DHT22;6913;49.892;7.936;2022-07-18T07:44:30;28.80;74.90
13682;DHT22;6913;49.892;7.936;2022-07-18T07:46:57;28.80;73.60
13682;DHT22;6913;49.892;7.936;2022-07-18T07:49:25;29.50;73.00
13682;DHT22;6913;49.892;7.936;2022-07-18T07:51:51;30.10;73.70
13682;DHT22;6913;49.892;7.936;2022-07-18T07:54:18;30.60;72.00
13682;DHT22;6913;49.892;7.936;2022-07-18T07:56:46;31.10;68.50
13682;DHT22;6913;49.892;7.936;2022-07-18T07:59:13;30.30;68.70
13682;DHT22;6913;49.892;7.936;2022-07-18T08:01:40;31.10;69.50
13682;DHT22;6913;49.892;7.936;2022-07-18T08:04:07;31.90;68.30
13682;DHT22;6913;49.892;7.936;2022-07-18T08:06:34;30.10;68.10
13682;DHT22;6913;49.892;7.936;2022-07-18T08:09:01;30.60;67.40
13682;DHT22;6913;49.892;7.936;2022-07-18T08:11:28;30.00;68.70
13682;DHT22;6913;49.892;7.936;2022-07-18T08:13:56;30.40;69.30
13682;DHT22;6913;49.892;7.936;2022-07-18T08:16:23;30.80;67.40
13682;DHT22;6913;49.892;7.936;2022-07-18T08:18:50;31.00;66.60
13682;DHT22;6913;49.892;7.936;2022-07-18T08:21:17;31.60;66.00
13682;DHT22;6913;49.892;7.936;2022-07-18T08:23:43;31.40;64.20
13682;DHT22;6913;49.892;7.936;2022-07-18T08:26:12;30.60;63.70
13682;DHT22;6913;49.892;7.936;2022-07-18T08:28:39;31.30;65.80
13682;DHT22;6913;49.892;7.936;2022-07-18T08:31:08;31.80;64.70
13682;DHT22;6913;49.892;7.936;2022-07-18T08:33:34;32.20;63.10
13682;DHT22;6913;49.892;7.936;2022-07-18T08:36:01;31.90;62.90
13682;DHT22;6913;49.892;7.936;2022-07-18T08:38:28;32.40;62.80
13682;DHT22;6913;49.892;7.936;2022-07-18T08:40:56;32.60;62.00
13682;DHT22;6913;49.892;7.936;2022-07-18T08:43:24;32.60;59.10
13682;DHT22;6913;49.892;7.936;2022-07-18T08:45:54;30.70;60.90
13682;DHT22;6913;49.892;7.936;2022-07-18T08:48:23;31.70;62.80
13682;DHT22;6913;49.892;7.936;2022-07-18T08:50:50;32.30;61.60
13682;DHT22;6913;49.892;7.936;2022-07-18T08:53:18;32.80;58.30
13682;DHT22;6913;49.892;7.936;2022-07-18T08:55:46;32.70;58.90
13682;DHT22;6913;49.892;7.936;2022-07-18T08:58:13;32.90;58.60
13682;DHT22;6913;49.892;7.936;2022-07-18T09:00:43;33.00;57.60
13682;DHT22;6913;49.892;7.936;2022-07-18T09:03:10;33.50;57.00
13682;DHT22;6913;49.892;7.936;2022-07-18T09:05:39;34.20;57.40
13682;DHT22;6913;49.892;7.936;2022-07-18T09:08:11;34.50;58.00
13682;DHT22;6913;49.892;7.936;2022-07-18T09:10:48;35.20;55.90
13682;DHT22;6913;49.892;7.936;2022-07-18T09:13:16;34.90;55.70
13682;DHT22;6913;49.892;7.936;2022-07-18T09:16:00;35.30;53.20
13682;DHT22;6913;49.892;7.936;2022-07-18T09:18:28;35.80;50.50
13682;DHT22;6913;49.892;7.936;2022-07-18T09:21:02;34.20;50.50
13682;DHT22;6913;49.892;7.936;2022-07-18T09:23:33;34.00;48.40
13682;DHT22;6913;49.892;7.936;2022-07-18T09:26:01;34.10;48.00
13682;DHT22;6913;49.892;7.936;2022-07-18T09:28:29;34.30;48.30
13682;DHT22;6913;49.892;7.936;2022-07-18T09:31:17;33.10;47.30
13682;DHT22;6913;49.892;7.936;2022-07-18T09:33:51;32.00;48.30
13682;DHT22;6913;49.892;7.936;2022-07-18T09:36:20;33.30;49.70
13682;DHT22;6913;49.892;7.936;2022-07-18T09:38:47;34.20;47.00
13682;DHT22;6913;49.892;7.936;2022-07-18T09:41:15;33.90;46.70
13682;DHT22;6913;49.892;7.936;2022-07-18T09:43:41;33.80;45.10
13682;DHT22;6913;49.892;7.936;2022-07-18T09:46:08;33.70;45.50
13682;DHT22;6913;49.892;7.936;2022-07-18T09:48:35;33.20;44.60
13682;DHT22;6913;49.892;7.936;2022-07-18T09:51:04;32.50;45.40
13682;DHT22;6913;49.892;7.936;2022-07-18T09:53:34;33.50;44.70
13682;DHT22;6913;49.892;7.936;2022-07-18T09:56:03;31.70;41.60
13682;DHT22;6913;49.892;7.936;2022-07-18T09:58:33;31.70;43.40
13682;DHT22;6913;49.892;7.936;2022-07-18T10:01:01;32.40;43.10
13682;DHT22;6913;49.892;7.936;2022-07-18T10:03:29;33.40;43.90
13682;DHT22;6913;49.892;7.936;2022-07-18T10:05:57;34.20;40.80
13682;DHT22;6913;49.892;7.936;2022-07-18T10:08:26;34.40;41.90
13682;DHT22;6913;49.892;7.936;2022-07-18T10:10:56;34.70;40.10
13682;DHT22;6913;49.892;7.936;2022-07-18T10:13:26;33.60;40.80
13682;DHT22;6913;49.892;7.936;2022-07-18T10:15:53;33.00;38.30
13682;DHT22;6913;49.892;7.936;2022-07-18T10:18:21;32.60;41.40
13682;DHT22;6913;49.892;7.936;2022-07-18T10:20:54;33.10;41.80
13682;DHT22;6913;49.892;7.936;2022-07-18T10:23:24;33.80;39.60
13682;DHT22;6913;49.892;7.936;2022-07-18T10:26:12;34.40;39.20
13682;DHT22;6913;49.892;7.936;2022-07-18T10:29:08;34.90;38.20
13682;DHT22;6913;49.892;7.936;2022-07-18T10:31:36;34.80;38.20
13682;DHT22;6913;49.892;7.936;2022-07-18T10:34:10;35.30;39.20
13682;DHT22;6913;49.892;7.936;2022-07-18T10:36:39;35.70;39.50
13682;DHT22;6913;49.892;7.936;2022-07-18T10:39:08;36.50;39.50
13682;DHT22;6913;49.892;7.936;2022-07-18T10:44:38;37.10;37.10
13682;DHT22;6913;49.892;7.936;2022-07-18T10:47:07;36.80;35.80
13682;DHT22;6913;49.892;7.936;2022-07-18T10:50:00;36.70;37.50
13682;DHT22;6913;49.892;7.936;2022-07-18T10:52:55;36.90;36.70
13682;DHT22;6913;49.892;7.936;2022-07-18T10:55:29;36.70;36.40
13682;DHT22;6913;49.892;7.936;2022-07-18T10:58:18;35.70;35.80
13682;DHT22;6913;49.892;7.936;2022-07-18T11:00:49;34.70;37.70
13682;DHT22;6913;49.892;7.936;2022-07-18T11:03:21;34.50;37.90
13682;DHT22;6913;49.892;7.936;2022-07-18T11:05:54;34.70;37.80
13682;DHT22;6913;49.892;7.936;2022-07-18T11:08:21;35.70;37.30
13682;DHT22;6913;49.892;7.936;2022-07-18T11:11:20;36.20;36.50
13682;DHT22;6913;49.892;7.936;2022-07-18T11:13:46;35.50;36.50
13682;DHT22;6913;49.892;7.936;2022-07-18T11:16:22;35.40;36.30
13682;DHT22;6913;49.892;7.936;2022-07-18T11:19:23;35.80;35.60
13682;DHT22;6913;49.892;7.936;2022-07-18T11:21:57;36.20;35.10
13682;DHT22;6913;49.892;7.936;2022-07-18T11:24:26;36.50;35.70
13682;DHT22;6913;49.892;7.936;2022-07-18T11:26:53;36.10;34.80
13682;DHT22;6913;49.892;7.936;2022-07-18T11:29:20;36.10;34.90
13682;DHT22;6913;49.892;7.936;2022-07-18T11:31:49;35.80;35.30
13682;DHT22;6913;49.892;7.936;2022-07-18T11:34:17;36.30;34.50
13682;DHT22;6913;49.892;7.936;2022-07-18T11:36:45;35.30;34.70
13682;DHT22;6913;49.892;7.936;2022-07-18T11:39:13;35.50;33.70
13682;DHT22;6913;49.892;7.936;2022-07-18T11:41:41;35.90;34.40
13682;DHT22;6913;49.892;7.936;2022-07-18T11:44:16;35.50;33.90
13682;DHT22;6913;49.892;7.936;2022-07-18T11:46:44;35.20;33.50
13682;DHT22;6913;49.892;7.936;2022-07-18T11:49:12;35.80;33.40
13682;DHT22;6913;49.892;7.936;2022-07-18T11:51:41;36.40;32.90
13682;DHT22;6913;49.892;7.936;2022-07-18T11:54:09;36.30;33.10
13682;DHT22;6913;49.892;7.936;2022-07-18T11:56:45;35.80;33.10
13682;DHT22;6913;49.892;7.936;2022-07-18T11:59:12;35.80;34.00
13682;DHT22;6913;49.892;7.936;2022-07-18T12:01:39;36.00;34.10
13682;DHT22;6913;49.892;7.936;2022-07-18T12:04:06;36.20;34.70
13682;DHT22;6913;49.892;7.936;2022-07-18T12:06:35;36.90;33.50
13682;DHT22;6913;49.892;7.936;2022-07-18T12:09:02;36.30;33.70
13682;DHT22;6913;49.892;7.936;2022-07-18T12:11:31;35.20;33.00
13682;DHT22;6913;49.892;7.936;2022-07-18T12:14:01;35.60;34.20
13682;DHT22;6913;49.892;7.936;2022-07-18T12:16:33;36.00;34.90
13682;DHT22;6913;49.892;7.936;2022-07-18T12:19:04;35.90;33.90
13682;DHT22;6913;49.892;7.936;2022-07-18T12:21:49;35.80;35.00
13682;DHT22;6913;49.892;7.936;2022-07-18T12:24:29;36.60;34.10
13682;DHT22;6913;49.892;7.936;2022-07-18T12:27:14;36.70;33.60
13682;DHT22;6913;49.892;7.936;2022-07-18T12:30:05;36.20;33.50
13682;DHT22;6913;49.892;7.936;2022-07-18T12:32:41;35.00;33.70
13682;DHT22;6913;49.892;7.936;2022-07-18T12:35:10;34.80;35.90
13682;DHT22;6913;49.892;7.936;2022-07-18T12:37:39;35.80;35.00
13682;DHT22;6913;49.892;7.936;2022-07-18T12:40:08;35.40;33.60
13682;DHT22;6913;49.892;7.936;2022-07-18T12:42:37;35.80;35.10
13682;DHT22;6913;49.892;7.936;2022-07-18T12:45:06;35.60;33.30
13682;DHT22;6913;49.892;7.936;2022-07-18T12:47:34;36.00;34.20
13682;DHT22;6913;49.892;7.936;2022-07-18T12:50:01;36.30;34.30
13682;DHT22;6913;49.892;7.936;2022-07-18T12:52:28;36.60;33.20
13682;DHT22;6913;49.892;7.936;2022-07-18T12:54:56;36.70;32.80
13682;DHT22;6913;49.892;7.936;2022-07-18T12:57:23;36.00;33.10
13682;DHT22;6913;49.892;7.936;2022-07-18T12:59:50;36.20;33.20
13682;DHT22;6913;49.892;7.936;2022-07-18T13:02:17;35.80;33.40
13682;DHT22;6913;49.892;7.936;2022-07-18T13:04:45;35.90;33.20
13682;DHT22;6913;49.892;7.936;2022-07-18T13:07:12;35.90;33.60
13682;DHT22;6913;49.892;7.936;2022-07-18T13:09:38;36.60;33.00
13682;DHT22;6913;49.892;7.936;2022-07-18T13:12:07;36.20;31.60
13682;DHT22;6913;49.892;7.936;2022-07-18T13:14:34;34.90;32.80
13682;DHT22;6913;49.892;7.936;2022-07-18T13:17:01;34.50;34.00
13682;DHT22;6913;49.892;7.936;2022-07-18T13:19:29;34.70;33.70
13682;DHT22;6913;49.892;7.936;2022-07-18T13:21:57;35.60;33.80
13682;DHT22;6913;49.892;7.936;2022-07-18T13:24:25;35.70;32.40
13682;DHT22;6913;49.892;7.936;2022-07-18T13:26:52;35.00;33.60
13682;DHT22;6913;49.892;7.936;2022-07-18T13:29:20;35.60;32.30
13682;DHT22;6913;49.892;7.936;2022-07-18T13:31:47;35.80;32.80
13682;DHT22;6913;49.892;7.936;2022-07-18T13:34:17;35.10;32.80
13682;DHT22;6913;49.892;7.936;2022-07-18T13:36:46;35.30;32.60
13682;DHT22;6913;49.892;7.936;2022-07-18T13:39:13;36.10;33.60
13682;DHT22;6913;49.892;7.936;2022-07-18T13:41:40;35.80;31.70
13682;DHT22;6913;49.892;7.936;2022-07-18T13:44:07;36.10;33.10
13682;DHT22;6913;49.892;7.936;2022-07-18T13:46:36;36.90;32.70
13682;DHT22;6913;49.892;7.936;2022-07-18T13:49:06;37.40;33.30
13682;DHT22;6913;49.892;7.936;2022-07-18T13:51:33;37.70;32.10
13682;DHT22;6913;49.892;7.936;2022-07-18T13:54:00;37.30;32.20
13682;DHT22;6913;49.892;7.936;2022-07-18T13:56:27;37.40;31.50
13682;DHT22;6913;49.892;7.936;2022-07-18T13:58:53;37.30;31.40
13682;DHT22;6913;49.892;7.936;2022-07-18T14:01:20;36.50;32.30
13682;DHT22;6913;49.892;7.936;2022-07-18T14:03:49;36.60;32.00
13682;DHT22;6913;49.892;7.936;2022-07-18T14:06:16;35.50;32.90
13682;DHT22;6913;49.892;7.936;2022-07-18T14:08:43;35.80;32.00
13682;DHT22;6913;49.892;7.936;2022-07-18T14:11:10;36.20;32.00
13682;DHT22;6913;49.892;7.936;2022-07-18T14:13:37;36.40;32.10
13682;DHT22;6913;49.892;7.936;2022-07-18T14:16:04;36.50;31.70
13682;DHT22;6913;49.892;7.936;2022-07-18T14:18:31;36.70;31.70
13682;DHT22;6913;49.892;7.936;2022-07-18T14:20:59;36.60;32.10
13682;DHT22;6913;49.892;7.936;2022-07-18T14:23:26;37.30;32.00
13682;DHT22;6913;49.892;7.936;2022-07-18T14:25:53;37.30;32.20
13682;DHT22;6913;49.892;7.936;2022-07-18T14:28:19;37.80;31.80
13682;DHT22;6913;49.892;7.936;2022-07-18T14:30:46;38.00;31.50
13682;DHT22;6913;49.892;7.936;2022-07-18T14:33:13;38.10;30.00
13682;DHT22;6913;49.892;7.936;2022-07-18T14:35:40;37.20;30.80
13682;DHT22;6913;49.892;7.936;2022-07-18T14:38:08;36.10;31.10
13682;DHT22;6913;49.892;7.936;2022-07-18T14:40:35;36.50;32.30
13682;DHT22;6913;49.892;7.936;2022-07-18T14:43:02;37.40;31.30
13682;DHT22;6913;49.892;7.936;2022-07-18T14:45:29;37.30;30.80
13682;DHT22;6913;49.892;7.936;2022-07-18T14:47:56;37.20;31.10
13682;DHT22;6913;49.892;7.936;2022-07-18T14:50:23;36.70;30.40
13682;DHT22;6913;49.892;7.936;2022-07-18T14:52:50;36.40;30.90
13682;DHT22;6913;49.892;7.936;2022-07-18T14:55:18;36.60;30.90
13682;DHT22;6913;49.892;7.936;2022-07-18T14:57:45;36.10;31.50
13682;DHT22;6913;49.892;7.936;2022-07-18T15:00:12;36.20;32.10
13682;DHT22;6913;49.892;7.936;2022-07-18T15:02:40;36.10;31.00
13682;DHT22;6913;49.892;7.936;2022-07-18T15:05:07;36.30;31.70
13682;DHT22;6913;49.892;7.936;2022-07-18T15:07:34;36.60;31.80
13682;DHT22;6913;49.892;7.936;2022-07-18T15:10:02;36.90;31.10
13682;DHT22;6913;49.892;7.936;2022-07-18T15:12:30;37.00;31.00
13682;DHT22;6913;49.892;7.936;2022-07-18T15:14:58;37.40;30.50
13682;DHT22;6913;49.892;7.936;2022-07-18T15:17:25;36.80;31.10
13682;DHT22;6913;49.892;7.936;2022-07-18T15:19:52;36.40;31.40
13682;DHT22;6913;49.892;7.936;2022-07-18T15:22:19;36.10;31.10
13682;DHT22;6913;49.892;7.936;2022-07-18T15:24:46;36.10;31.20
13682;DHT22;6913;49.892;7.936;2022-07-18T15:27:13;36.40;31.40
13682;DHT22;6913;49.892;7.936;2022-07-18T15:29:41;36.70;31.00
13682;DHT22;6913;49.892;7.936;2022-07-18T15:32:08;37.10;31.40
13682;DHT22;6913;49.892;7.936;2022-07-18T15:34:35;37.10;31.30
13682;DHT22;6913;49.892;7.936;2022-07-18T15:37:02;37.30;30.90
13682;DHT22;6913;49.892;7.936;2022-07-18T15:39:29;37.50;30.50
13682;DHT22;6913;49.892;7.936;2022-07-18T15:41:56;37.70;31.10
13682;DHT22;6913;49.892;7.936;2022-07-18T15:44:24;37.60;30.80
13682;DHT22;6913;49.892;7.936;2022-07-18T15:46:52;37.30;31.10
13682;DHT22;6913;49.892;7.936;2022-07-18T15:49:19;37.30;30.80
13682;DHT22;6913;49.892;7.936;2022-07-18T15:51:46;37.20;30.50
13682;DHT22;6913;49.892;7.936;2022-07-18T15:54:14;36.90;30.00
13682;DHT22;6913;49.892;7.936;2022-07-18T15:56:41;36.00;31.90